Data for 02/14/2014

Time Sea-Level Adjusted Pressure Absolute Pressure Temperature Relative Humidity Dew Point   
(mb) (inHg) (mb) (inHg) (C) (F) (%) (C) (F)
00:05 1017 30.03 846 24.98 -0.6 30.9 51 -9.6 14.7
00:10 1017 30.03 846 24.98 -0.4 31.2 49 -9.8 14.4
00:15 1017 30.03 846 24.98 -0.4 31.2 51 -9.3 15.2
00:20 1017 30.03 846 24.98 -1 30.3 49 -10.4 13.3
00:25 1017 30.03 846 24.98 -0.8 30.6 49 -10.1 13.8
00:30 1017 30.03 846 24.98 -0.7 30.8 49 -10.1 13.8
00:35 1017 30.03 846 24.98 -0.6 30.9 47 -10.6 13
00:40 1017 30.03 846 24.98 -0.5 31 46 -10.7 12.7
00:45 1017 30.03 846 24.98 -0.7 30.8 47 -10.6 12.9
00:50 1017 30.03 846 24.98 -1 30.2 49 -10.3 13.5
00:55 1017 30.03 846 24.98 -1.3 29.6 50 -10.4 13.2
01:00 1017 30.03 846 24.98 -1.7 29 52 -10.3 13.5
01:05 1017 30.03 846 24.98 -1.9 28.6 50 -11 12.1
01:10 1017 30.03 847 25.01 -1.7 29 49 -10.9 12.3
01:15 1017 30.03 847 25.01 -1.7 28.9 50 -10.8 12.6
01:20 1017 30.03 847 25.01 -1.9 28.6 49 -11.2 11.8
01:25 1017 30.03 847 25.01 -1.7 28.9 46 -11.9 10.6
01:30 1017 30.03 847 25.01 -1.4 29.4 45 -11.9 10.5
01:35 1017 30.03 847 25.01 -1.4 29.5 45 -11.8 10.8
01:40 1017 30.03 847 25.01 -1.4 29.5 45 -11.8 10.8
01:45 1017 30.03 847 25.01 -1.3 29.7 43 -12.2 10
01:50 1017 30.03 847 25.01 -1 30.3 42 -12.3 9.9
01:55 1017 30.03 847 25.01 -1.3 29.7 43 -12.2 10
02:00 1017 30.03 847 25.01 -1.4 29.6 44 -12.1 10.2
02:05 1017 30.03 847 25.01 -1.1 30 42 -12.5 9.5
02:10 1017 30.03 847 25.01 -1 30.3 42 -12.2 10.1
02:15 1017 30.03 847 25.01 -0.7 30.7 42 -12.2 10
02:20 1017 30.03 847 25.01 -0.9 30.4 43 -12 10.5
02:25 1017 30.03 847 25.01 -1.2 29.9 40 -13.1 8.4
02:30 1017 30.03 847 25.01 -1.2 29.8 41 -12.8 9
02:35 1017 30.03 847 25.01 -1.2 29.9 37 -14.2 6.4
02:40 1017 30.03 847 25.01 -0.8 30.6 42 -12.1 10.1
02:45 1017 30.03 847 25.01 -1.1 30 41 -12.7 9.1
02:50 1017 30.03 846 24.98 -1.3 29.7 40 -13.2 8.3
02:55 1017 30.03 846 24.98 -1.5 29.3 43 -12.4 9.7
03:00 1017 30.03 846 24.98 -1.5 29.3 42 -12.8 8.9
03:05 1017 30.03 846 24.98 -1.4 29.6 41 -13.1 8.4
03:10 1017 30.03 846 24.98 -1.1 29.9 38 -13.7 7.4
03:15 1017 30.03 846 24.98 -1.4 29.6 40 -13.4 7.8
03:20 1017 30.03 846 24.98 -1.7 28.9 39 -14 6.7
03:25 1017 30.03 846 24.98 -1.3 29.7 37 -14.3 6.2
03:30 1017 30.03 846 24.98 -1 30.1 37 -13.8 7.1
03:35 1017 30.03 846 24.98 -1.9 28.7 44 -12.6 9.3
03:40 1017 30.03 846 24.98 -2.7 27.1 44 -13.3 8
03:45 1017 30.03 846 24.98 -2.7 27.1 42 -13.8 7.1
03:50 1017 30.03 846 24.98 -2.2 28 43 -13.2 8.2
03:55 1017 30.03 846 24.98 -2.3 27.9 43 -13.4 7.9
04:00 1017 30.03 846 24.98 -2.5 27.4 42 -13.8 7.2
04:05 1017 30.03 846 24.98 -2.5 27.5 44 -13 8.5
04:10 1017 30.03 846 24.98 -2.6 27.3 43 -13.5 7.8
04:15 1017 30.03 846 24.98 -2.6 27.4 42 -13.8 7.2
04:20 1017 30.03 846 24.98 -2.6 27.3 43 -13.5 7.7
04:25 1017 30.03 846 24.98 -2.6 27.3 41 -14 6.8
04:30 1017 30.03 846 24.98 -2.5 27.5 46 -12.7 9.1
04:35 1017 30.03 846 24.98 -3 26.5 49 -12.4 9.7
04:40 1017 30.03 846 24.98 -3.5 25.7 51 -12.4 9.8
04:45 1017 30.03 846 24.98 -3.7 25.4 50 -12.7 9.2
04:50 1017 30.03 846 24.98 -3.7 25.3 50 -12.7 9.1
04:55 1017 30.03 846 24.98 -3.8 25.1 50 -12.7 9.1
05:00 1016 30 846 24.98 -3.8 25.1 50 -12.8 9
05:05 1016 30 846 24.98 -3.8 25.1 50 -12.8 9
05:10 1016 30 846 24.98 -3.9 25 54 -12 10.4
05:15 1016 30 845 24.95 -4.1 24.7 55 -11.9 10.6
05:20 1016 30 846 24.98 -4.1 24.5 50 -13.1 8.4
05:25 1016 30 845 24.95 -3.8 25.2 49 -13 8.6
05:30 1016 30 845 24.95 -3.7 25.4 50 -12.7 9.2
05:35 1016 30 845 24.95 -3.8 25.1 50 -12.9 8.8
05:40 1016 30 845 24.95 -3.8 25.1 50 -12.9 8.8
05:45 1016 30 845 24.95 -3.6 25.5 46 -13.6 7.5
05:50 1016 30 845 24.95 -3.3 26.1 46 -13.4 7.9
05:55 1016 30 845 24.95 -3.3 26 46 -13.3 8.1
06:00 1016 30 845 24.95 -3.3 26 45 -13.5 7.7
06:05 1016 30 845 24.95 -3.2 26.3 45 -13.6 7.5
06:10 1016 30 845 24.95 -3.1 26.4 44 -13.8 7.1
06:15 1016 30 845 24.95 -2.9 26.8 42 -14.1 6.6
06:20 1016 30 845 24.95 -2.7 27.2 40 -14.6 5.6
06:25 1016 30 845 24.95 -2.4 27.7 39 -14.5 6
06:30 1016 30 845 24.95 -2.3 27.9 37 -15 5
06:35 1016 30 845 24.95 -2 28.4 38 -14.6 5.7
06:40 1016 30 845 24.95 -2 28.5 36 -15.3 4.4
06:45 1016 30 845 24.95 -2.1 28.2 41 -13.6 7.5
06:50 1016 30 845 24.95 -2.8 27 43 -13.6 7.4
06:55 1016 30 845 24.95 -3 26.7 46 -13.2 8.3
07:00 1016 30 845 24.95 -3.1 26.4 43 -14 6.8
07:05 1016 30 845 24.95 -2.6 27.4 43 -13.6 7.4
07:10 1016 30 845 24.95 -2.8 26.9 44 -13.4 7.8
07:15 1016 30 845 24.95 -3 26.7 45 -13.4 7.9
07:20 1016 30 845 24.95 -3.1 26.4 47 -13 8.6
07:25 1016 30 845 24.95 -3.3 26 47 -13.2 8.2
07:30 1015 29.97 845 24.95 -3.2 26.3 44 -13.7 7.4
07:35 1015 29.97 845 24.95 -3 26.6 45 -13.4 7.9
07:40 1015 29.97 844 24.92 -2.9 26.7 43 -13.8 7.1
07:45 1015 29.97 844 24.92 -2.8 26.9 43 -13.8 7.2
07:50 1015 29.97 844 24.92 -2.8 27 41 -14.1 6.6
07:55 1015 29.97 844 24.92 -2.6 27.3 42 -13.9 6.9
08:00 1015 29.97 844 24.92 -2.6 27.3 42 -13.9 6.9
08:05 1015 29.97 844 24.92 -2.6 27.4 42 -13.9 7
08:10 1015 29.97 844 24.92 -2.6 27.3 42 -14 6.9
08:15 1015 29.97 844 24.92 -2.6 27.3 41 -14 6.7
08:20 1015 29.97 844 24.92 -2.5 27.5 40 -14.3 6.3
08:25 1015 29.97 844 24.92 -2.4 27.6 41 -13.9 7
08:30 1015 29.97 844 24.92 -2.3 27.8 39 -14.4 6.1
08:35 1015 29.97 844 24.92 -2.3 27.9 40 -14.2 6.4
08:40 1015 29.97 844 24.92 -2.1 28.2 39 -14.2 6.5
08:45 1015 29.97 844 24.92 -2.1 28.1 41 -13.7 7.3
08:50 1015 29.97 844 24.92 -2.1 28.3 37 -14.8 5.4
08:55 1015 29.97 844 24.92 -1.9 28.6 37 -14.7 5.6
09:00 1015 29.97 844 24.92 -1.9 28.6 42 -13.1 8.4
09:05 1015 29.97 844 24.92 -2.4 27.6 37 -15.1 4.8
09:10 1015 29.97 844 24.92 -2.4 27.7 41 -13.8 7.1
09:15 1015 29.97 844 24.92 -2.4 27.7 41 -14.1 6.7
09:20 1015 29.97 844 24.92 -2.3 27.8 40 -14.3 6.2
09:25 1015 29.97 844 24.92 -2.1 28.3 40 -14.1 6.6
09:30 1015 29.97 844 24.92 -2.1 28.2 36 -15.1 4.8
09:35 1015 29.97 844 24.92 -1.9 28.5 35 -15.4 4.3
09:40 1015 29.97 844 24.92 -1.7 28.9 41 -13.4 7.8
09:45 1015 29.97 844 24.92 -2.1 28.2 41 -13.6 7.5
09:50 1014 29.94 844 24.92 -2.3 27.9 42 -13.7 7.4
09:55 1015 29.97 844 24.92 -2.2 28 40 -14 6.8
10:00 1014 29.94 844 24.92 -2 28.4 43 -13 8.7
10:05 1014 29.94 844 24.92 -1.9 28.6 36 -14.9 5.1
10:10 1014 29.94 844 24.92 -1.4 29.5 34 -15.4 4.3
10:15 1014 29.94 844 24.92 -1.1 30 42 -12.3 9.8
10:20 1014 29.94 844 24.92 -1.3 29.6 45 -11.8 10.7
10:25 1014 29.94 844 24.92 -1.7 28.9 38 -14.2 6.5
10:30 1014 29.94 843 24.89 -1.4 29.4 36 -14.9 5.3
10:35 1014 29.94 844 24.92 -1 30.2 38 -13.8 7.2
10:40 1014 29.94 844 24.92 -0.7 30.8 40 -12.7 9.2
10:45 1014 29.94 843 24.89 -0.3 31.5 39 -12.7 9.1
10:50 1014 29.94 843 24.89 -0.5 31.2 42 -11.8 10.8
10:55 1014 29.94 843 24.89 -0.4 31.3 37 -13.4 7.9
11:00 1014 29.94 843 24.89 -0.3 31.5 33 -14.6 5.7
11:05 1014 29.94 843 24.89 0.4 32.6 30 -15.2 4.6
11:10 1014 29.94 843 24.89 1.1 34 32 -13.9 6.9
11:15 1014 29.94 843 24.89 1.3 34.4 33 -13.4 7.9
11:20 1014 29.94 843 24.89 1.4 34.5 33 -13.3 8.1
11:25 1014 29.94 843 24.89 1.1 33.9 34 -13.1 8.5
11:30 1014 29.94 843 24.89 1.3 34.4 33 -13.2 8.2
11:35 1013 29.91 843 24.89 1.1 33.9 33 -13.7 7.3
11:40 1013 29.91 843 24.89 0.9 33.5 34 -13.5 7.7
11:45 1013 29.91 842 24.86 0.9 33.5 35 -12.9 8.9
11:50 1013 29.91 842 24.86 0.6 33.2 34 -13.6 7.6
11:55 1013 29.91 842 24.86 0.7 33.2 32 -14.3 6.2
12:00 1013 29.91 842 24.86 0.5 32.9 32 -14.3 6.2
12:05 1013 29.91 842 24.86 0.7 33.2 32 -14.2 6.4
12:10 1013 29.91 842 24.86 1 33.7 32 -13.9 7
12:15 1013 29.91 842 24.86 1.2 34.2 34 -13.1 8.4
12:20 1012 29.88 842 24.86 1.5 34.7 33 -13 8.7
12:25 1012 29.88 841 24.83 1.5 34.7 34 -12.8 8.9
12:30 1012 29.88 841 24.83 1.5 34.6 34 -12.9 8.8
12:35 1012 29.88 841 24.83 1.5 34.8 35 -12.5 9.6
12:40 1012 29.88 841 24.83 1.9 35.4 34 -12.5 9.5
12:45 1012 29.88 841 24.83 2 35.6 34 -12.5 9.5
12:50 1012 29.88 841 24.83 2 35.6 35 -11.9 10.5
12:55 1011 29.85 841 24.83 2.2 35.9 34 -12 10.3
13:00 1011 29.85 841 24.83 2.6 36.6 33 -12.1 10.3
13:05 1011 29.85 840 24.81 2.7 36.9 33 -12 10.3
13:10 1011 29.85 840 24.81 2.9 37.2 33 -11.8 10.8
13:15 1011 29.85 840 24.81 2.7 36.9 34 -11.7 10.9
13:20 1011 29.85 840 24.81 2.6 36.6 34 -11.6 11.1
13:25 1011 29.85 840 24.81 3 37.4 36 -10.7 12.8
13:30 1011 29.85 840 24.81 3.3 38 34 -11.2 11.8
13:35 1011 29.85 840 24.81 3 37.4 37 -10.4 13.3
13:40 1011 29.85 840 24.81 3.2 37.8 35 -10.6 12.8
13:45 1011 29.85 840 24.81 3.5 38.3 33 -11.4 11.5
13:50 1010 29.83 839 24.78 3.4 38.1 33 -11.3 11.7
13:55 1010 29.83 839 24.78 3.6 38.5 33 -11.2 11.8
14:00 1010 29.83 839 24.78 3.4 38.2 35 -10.5 13.1
14:05 1010 29.83 839 24.78 4 39.2 35 -10.3 13.4
14:10 1010 29.83 839 24.78 4.2 39.5 36 -9.7 14.5
14:15 1010 29.83 839 24.78 4.4 40 33 -10.5 13
14:20 1010 29.83 839 24.78 4.5 40 37 -8.9 16
14:25 1009 29.8 839 24.78 4.8 40.6 33 -10.1 13.8
14:30 1009 29.8 839 24.78 4.6 40.3 34 -9.9 14.1
14:35 1009 29.8 839 24.78 4.4 39.9 35 -9.7 14.5
14:40 1009 29.8 839 24.78 4.1 39.4 35 -10 13.9
14:45 1009 29.8 839 24.78 4 39.2 37 -9.3 15.2
14:50 1009 29.8 839 24.78 4.1 39.3 37 -9.2 15.4
14:55 1009 29.8 838 24.75 4.1 39.5 39 -8.8 16.2
15:00 1009 29.8 838 24.75 4.3 39.7 38 -8.8 16.1
15:05 1009 29.8 838 24.75 4.3 39.7 39 -8.4 17
15:10 1009 29.8 838 24.75 4.2 39.5 42 -7.8 18
15:15 1009 29.8 838 24.75 4 39.2 43 -7.6 18.4
15:20 1009 29.8 838 24.75 4 39.2 44 -7.3 18.9
15:25 1009 29.8 838 24.75 4.2 39.6 41 -7.9 17.8
15:30 1009 29.8 838 24.75 4.4 39.9 40 -7.9 17.8
15:35 1009 29.8 838 24.75 4.2 39.6 47 -6.2 20.8
15:40 1009 29.8 838 24.75 3.1 37.6 49 -6.5 20.2
15:45 1009 29.8 838 24.75 2.9 37.2 49 -6.9 19.7
15:50 1009 29.8 838 24.75 3.5 38.4 45 -7.3 18.9
15:55 1009 29.8 838 24.75 3.8 38.8 46 -6.7 19.9
16:00 1009 29.8 838 24.75 3.6 38.4 46 -7.1 19.3
16:05 1009 29.8 838 24.75 3.5 38.3 44 -7.8 18
16:10 1009 29.8 838 24.75 3.2 37.7 43 -8.1 17.4
16:15 1009 29.8 838 24.75 3.2 37.7 44 -7.9 17.8
16:20 1009 29.8 838 24.75 3.5 38.2 44 -7.8 18
16:25 1009 29.8 838 24.75 3.6 38.6 43 -7.7 18.1
16:30 1009 29.8 839 24.78 3.8 38.9 43 -7.7 18.2
16:35 1009 29.8 839 24.78 4 39.2 45 -7 19.4
16:40 1009 29.8 839 24.78 4.2 39.6 46 -6.5 20.2
16:45 1009 29.8 839 24.78 4.3 39.8 45 -6.6 20.2
16:50 1010 29.83 839 24.78 4.4 39.9 46 -6.1 21
16:55 1009 29.8 839 24.78 4.4 39.9 47 -5.9 21.5
17:00 1009 29.8 839 24.78 4.4 39.9 50 -5.1 22.9
17:05 1009 29.8 839 24.78 4.8 40.7 49 -4.9 23.2
17:10 1009 29.8 839 24.78 4.8 40.7 49 -5.1 22.9
17:15 1009 29.8 838 24.75 4.5 40.1 50 -5 23
17:20 1009 29.8 838 24.75 4.7 40.4 50 -4.8 23.3
17:25 1009 29.8 838 24.75 4.9 40.9 51 -4.3 24.2
17:30 1009 29.8 838 24.75 5.2 41.4 51 -4.1 24.7
17:35 1009 29.8 838 24.75 5.5 41.9 51 -3.8 25.2
17:40 1009 29.8 838 24.75 5.4 41.8 52 -3.7 25.3
17:45 1009 29.8 838 24.75 5.5 41.8 52 -3.7 25.3
17:50 1009 29.8 838 24.75 5.5 41.9 52 -3.5 25.8
17:55 1009 29.8 838 24.75 5.4 41.8 53 -3.5 25.8
18:00 1009 29.8 838 24.75 5.2 41.4 57 -2.5 27.4
18:05 1008 29.77 837 24.72 5.6 42.1 57 -2.4 27.8
18:10 1008 29.77 837 24.72 5.8 42.5 56 -2.2 28.1
18:15 1008 29.77 837 24.72 5.8 42.5 57 -2 28.3
18:20 1008 29.77 837 24.72 5.7 42.3 57 -2 28.4
18:25 1008 29.77 837 24.72 5.6 42.1 56 -2.3 27.8
18:30 1008 29.77 837 24.72 5.8 42.4 56 -2.2 28
18:35 1008 29.77 837 24.72 5.7 42.3 56 -2.3 27.8
18:40 1008 29.77 837 24.72 5.7 42.3 57 -2.2 28.1
18:45 1008 29.77 837 24.72 5.6 42 58 -2.1 28.3
18:50 1008 29.77 837 24.72 5.5 42 58 -2.1 28.2
18:55 1008 29.77 837 24.72 5.6 42.1 58 -1.9 28.6
19:00 1008 29.77 837 24.72 5.5 41.9 58 -2 28.4
19:05 1008 29.77 837 24.72 5.6 42.2 59 -1.8 28.7
19:10 1008 29.77 837 24.72 5.5 42 59 -1.9 28.6
19:15 1008 29.77 837 24.72 5.5 42 59 -1.9 28.6
19:20 1008 29.77 837 24.72 5.7 42.2 58 -1.9 28.6
19:25 1008 29.77 837 24.72 5.9 42.7 58 -1.8 28.8
19:30 1008 29.77 837 24.72 5.9 42.7 59 -1.4 29.4
19:35 1008 29.77 837 24.72 5.8 42.4 60 -1.4 29.5
19:40 1008 29.77 838 24.75 5.5 41.9 61 -1.3 29.7
19:45 1009 29.8 838 24.75 5.4 41.7 62 -1.3 29.6
19:50 1009 29.8 838 24.75 5.4 41.7 62 -1.2 29.8
19:55 1009 29.8 838 24.75 5.3 41.6 65 -0.7 30.7
20:00 1009 29.8 838 24.75 5.2 41.3 69 -0.1 31.9
20:05 1009 29.8 838 24.75 4.7 40.5 73 0.3 32.6
20:10 1009 29.8 839 24.78 3.8 38.8 76 0 32.1
20:15 1009 29.8 839 24.78 2.5 36.4 85 0.3 32.5
20:20 1010 29.83 839 24.78 1.5 34.6 89 -0.1 31.8
20:25 1010 29.83 839 24.78 1.1 34 91 -0.2 31.7
20:30 1010 29.83 839 24.78 1.1 33.9 92 -0.1 31.8
20:35 1010 29.83 839 24.78 1.1 34.1 92 0 32
20:40 1010 29.83 840 24.81 1.2 34.2 92 0.1 32.1
20:45 1010 29.83 839 24.78 1.2 34.1 91 -0.1 31.8
20:50 1010 29.83 839 24.78 1.3 34.4 89 -0.3 31.4
20:55 1010 29.83 839 24.78 1.6 34.9 87 -0.3 31.4
21:00 1010 29.83 839 24.78 1.9 35.3 85 -0.4 31.3
21:05 1010 29.83 839 24.78 2 35.7 85 -0.3 31.5
21:10 1010 29.83 839 24.78 2.1 35.8 83 -0.5 31.2
21:15 1010 29.83 839 24.78 2.1 35.9 83 -0.4 31.3
21:20 1010 29.83 839 24.78 2.1 35.7 83 -0.4 31.2
21:25 1010 29.83 839 24.78 2 35.6 84 -0.5 31.1
21:30 1010 29.83 839 24.78 2 35.5 83 -0.6 31
21:35 1010 29.83 840 24.81 1.9 35.4 83 -0.7 30.8
21:40 1011 29.85 840 24.81 1.9 35.4 83 -0.7 30.8
21:45 1011 29.85 840 24.81 1.9 35.4 83 -0.7 30.7
21:50 1011 29.85 840 24.81 1.8 35.3 82 -0.9 30.4
21:55 1011 29.85 840 24.81 1.8 35.3 81 -1.1 29.9
22:00 1011 29.85 840 24.81 1.8 35.3 80 -1.3 29.6
22:05 1011 29.85 840 24.81 1.8 35.3 78 -1.6 29.2
22:10 1011 29.85 840 24.81 1.9 35.4 76 -1.9 28.5
22:15 1011 29.85 841 24.83 2 35.6 72 -2.6 27.4
22:20 1011 29.85 840 24.81 2 35.7 72 -2.4 27.6
22:25 1011 29.85 841 24.83 2.1 35.7 67 -3.5 25.8
22:30 1011 29.85 841 24.83 2.4 36.3 66 -3.4 25.9
22:35 1011 29.85 841 24.83 2.3 36.2 70 -2.5 27.4
22:40 1011 29.85 841 24.83 2.1 35.7 72 -2.5 27.5
22:45 1011 29.85 841 24.83 1.9 35.4 75 -2 28.4
22:50 1011 29.85 841 24.83 1.7 35.1 75 -2.1 28.2
22:55 1012 29.88 841 24.83 1.8 35.2 75 -2.1 28.1
23:00 1012 29.88 841 24.83 1.8 35.2 75 -2.2 28
23:05 1012 29.88 841 24.83 1.8 35.3 75 -2.1 28.2
23:10 1011 29.85 841 24.83 1.8 35.3 74 -2.2 28
23:15 1012 29.88 841 24.83 1.9 35.4 75 -2.1 28.2
23:20 1012 29.88 841 24.83 1.9 35.4 75 -2.1 28.3
23:25 1012 29.88 841 24.83 1.9 35.4 74 -2.2 28.1
23:30 1012 29.88 841 24.83 2 35.5 73 -2.3 27.8
23:35 1012 29.88 841 24.83 2.1 35.7 73 -2.3 27.9
23:40 1012 29.88 841 24.83 2 35.7 73 -2.2 28
23:45 1011 29.85 841 24.83 2.1 35.7 72 -2.4 27.7
23:50 1011 29.85 841 24.83 2.1 35.9 72 -2.3 27.8
23:55 1011 29.85 841 24.83 2.2 35.9 71 -2.6 27.4
24:00 1011 29.85 841 24.83 2.3 36.2 70 -2.6 27.2